sensor_id;sensor_type;location;lat;lon;timestamp;P1;durP1;ratioP1;P2;durP2;ratioP2
66129;SDS011;52930;51.464;11.764;2022-07-23T00:02:15;14.67;;;5.80;;
66129;SDS011;52930;51.464;11.764;2022-07-23T00:04:41;13.57;;;6.17;;
66129;SDS011;52930;51.464;11.764;2022-07-23T00:07:06;11.67;;;6.10;;
66129;SDS011;52930;51.464;11.764;2022-07-23T00:09:31;11.93;;;6.40;;
66129;SDS011;52930;51.464;11.764;2022-07-23T00:11:57;13.80;;;6.00;;
66129;SDS011;52930;51.464;11.764;2022-07-23T00:14:22;14.03;;;6.13;;
66129;SDS011;52930;51.464;11.764;2022-07-23T00:16:47;14.80;;;6.32;;
66129;SDS011;52930;51.464;11.764;2022-07-23T00:19:13;11.73;;;6.33;;
66129;SDS011;52930;51.464;11.764;2022-07-23T00:21:38;11.93;;;6.63;;
66129;SDS011;52930;51.464;11.764;2022-07-23T00:24:04;12.30;;;6.30;;
66129;SDS011;52930;51.464;11.764;2022-07-23T00:26:29;15.18;;;6.88;;
66129;SDS011;52930;51.464;11.764;2022-07-23T00:28:54;10.67;;;6.13;;
66129;SDS011;52930;51.464;11.764;2022-07-23T00:31:20;10.83;;;6.40;;
66129;SDS011;52930;51.464;11.764;2022-07-23T00:33:45;12.93;;;6.30;;
66129;SDS011;52930;51.464;11.764;2022-07-23T00:36:11;16.87;;;6.90;;
66129;SDS011;52930;51.464;11.764;2022-07-23T00:38:36;13.17;;;6.40;;
66129;SDS011;52930;51.464;11.764;2022-07-23T00:41:01;14.43;;;6.33;;
66129;SDS011;52930;51.464;11.764;2022-07-23T00:43:27;12.53;;;6.80;;
66129;SDS011;52930;51.464;11.764;2022-07-23T00:45:52;14.10;;;6.30;;
66129;SDS011;52930;51.464;11.764;2022-07-23T00:48:17;14.00;;;6.40;;
66129;SDS011;52930;51.464;11.764;2022-07-23T00:50:43;13.80;;;6.40;;
66129;SDS011;52930;51.464;11.764;2022-07-23T00:53:08;10.80;;;6.17;;
66129;SDS011;52930;51.464;11.764;2022-07-23T00:55:34;12.98;;;6.90;;
66129;SDS011;52930;51.464;11.764;2022-07-23T00:57:59;12.37;;;6.57;;
66129;SDS011;52930;51.464;11.764;2022-07-23T01:00:26;12.60;;;5.90;;
66129;SDS011;52930;51.464;11.764;2022-07-23T01:02:51;12.80;;;6.80;;
66129;SDS011;52930;51.464;11.764;2022-07-23T01:05:17;16.23;;;6.80;;
66129;SDS011;52930;51.464;11.764;2022-07-23T01:07:46;13.30;;;6.28;;
66129;SDS011;52930;51.464;11.764;2022-07-23T01:10:13;12.35;;;6.38;;
66129;SDS011;52930;51.464;11.764;2022-07-23T01:12:56;11.83;;;5.40;;
66129;SDS011;52930;51.464;11.764;2022-07-23T01:15:22;11.30;;;5.90;;
66129;SDS011;52930;51.464;11.764;2022-07-23T01:17:48;11.82;;;5.90;;
66129;SDS011;52930;51.464;11.764;2022-07-23T01:20:13;11.73;;;5.77;;
66129;SDS011;52930;51.464;11.764;2022-07-23T01:22:38;11.37;;;6.07;;
66129;SDS011;52930;51.464;11.764;2022-07-23T01:25:04;12.27;;;6.30;;
66129;SDS011;52930;51.464;11.764;2022-07-23T01:27:30;12.38;;;6.85;;
66129;SDS011;52930;51.464;11.764;2022-07-23T01:29:56;12.57;;;7.00;;
66129;SDS011;52930;51.464;11.764;2022-07-23T01:32:22;14.60;;;6.45;;
66129;SDS011;52930;51.464;11.764;2022-07-23T01:34:47;13.37;;;7.40;;
66129;SDS011;52930;51.464;11.764;2022-07-23T01:37:13;13.37;;;6.77;;
66129;SDS011;52930;51.464;11.764;2022-07-23T01:39:38;12.93;;;6.95;;
66129;SDS011;52930;51.464;11.764;2022-07-23T01:42:04;14.00;;;7.47;;
66129;SDS011;52930;51.464;11.764;2022-07-23T01:44:29;11.57;;;7.03;;
66129;SDS011;52930;51.464;11.764;2022-07-23T01:46:55;13.73;;;7.70;;
66129;SDS011;52930;51.464;11.764;2022-07-23T01:49:20;14.87;;;7.17;;
66129;SDS011;52930;51.464;11.764;2022-07-23T01:51:46;14.47;;;7.50;;
66129;SDS011;52930;51.464;11.764;2022-07-23T01:54:27;15.93;;;7.38;;
66129;SDS011;52930;51.464;11.764;2022-07-23T01:56:56;14.75;;;7.30;;
66129;SDS011;52930;51.464;11.764;2022-07-23T01:59:22;16.00;;;8.40;;
66129;SDS011;52930;51.464;11.764;2022-07-23T02:01:47;15.48;;;8.15;;
66129;SDS011;52930;51.464;11.764;2022-07-23T02:04:15;16.40;;;7.53;;
66129;SDS011;52930;51.464;11.764;2022-07-23T02:06:41;17.23;;;8.40;;
66129;SDS011;52930;51.464;11.764;2022-07-23T02:09:06;17.13;;;7.90;;
66129;SDS011;52930;51.464;11.764;2022-07-23T02:11:32;22.20;;;8.90;;
66129;SDS011;52930;51.464;11.764;2022-07-23T02:13:57;18.33;;;9.00;;
66129;SDS011;52930;51.464;11.764;2022-07-23T02:16:23;17.00;;;8.23;;
66129;SDS011;52930;51.464;11.764;2022-07-23T02:18:48;14.77;;;7.33;;
66129;SDS011;52930;51.464;11.764;2022-07-23T02:21:13;16.57;;;8.40;;
66129;SDS011;52930;51.464;11.764;2022-07-23T02:23:38;16.50;;;9.27;;
66129;SDS011;52930;51.464;11.764;2022-07-23T02:26:04;15.63;;;8.70;;
66129;SDS011;52930;51.464;11.764;2022-07-23T02:28:29;16.42;;;8.38;;
66129;SDS011;52930;51.464;11.764;2022-07-23T02:30:55;15.77;;;8.57;;
66129;SDS011;52930;51.464;11.764;2022-07-23T02:33:20;15.57;;;8.13;;
66129;SDS011;52930;51.464;11.764;2022-07-23T02:35:45;18.90;;;8.17;;
66129;SDS011;52930;51.464;11.764;2022-07-23T02:38:11;18.67;;;8.73;;
66129;SDS011;52930;51.464;11.764;2022-07-23T02:40:36;16.00;;;7.70;;
66129;SDS011;52930;51.464;11.764;2022-07-23T02:43:01;19.50;;;7.90;;
66129;SDS011;52930;51.464;11.764;2022-07-23T02:45:27;17.73;;;9.00;;
66129;SDS011;52930;51.464;11.764;2022-07-23T02:47:52;19.02;;;9.50;;
66129;SDS011;52930;51.464;11.764;2022-07-23T02:50:17;17.10;;;8.87;;
66129;SDS011;52930;51.464;11.764;2022-07-23T02:52:43;19.60;;;9.43;;
66129;SDS011;52930;51.464;11.764;2022-07-23T02:55:08;16.50;;;8.60;;
66129;SDS011;52930;51.464;11.764;2022-07-23T02:57:34;16.50;;;8.70;;
66129;SDS011;52930;51.464;11.764;2022-07-23T02:59:59;17.33;;;8.67;;
66129;SDS011;52930;51.464;11.764;2022-07-23T03:02:24;18.88;;;8.90;;
66129;SDS011;52930;51.464;11.764;2022-07-23T03:04:50;16.77;;;8.87;;
66129;SDS011;52930;51.464;11.764;2022-07-23T03:07:17;18.63;;;9.40;;
66129;SDS011;52930;51.464;11.764;2022-07-23T03:09:43;17.63;;;9.37;;
66129;SDS011;52930;51.464;11.764;2022-07-23T03:12:08;20.88;;;10.20;;
66129;SDS011;52930;51.464;11.764;2022-07-23T03:14:33;18.13;;;9.50;;
66129;SDS011;52930;51.464;11.764;2022-07-23T03:16:59;18.07;;;8.80;;
66129;SDS011;52930;51.464;11.764;2022-07-23T03:19:27;15.63;;;8.75;;
66129;SDS011;52930;51.464;11.764;2022-07-23T03:21:52;20.07;;;9.90;;
66129;SDS011;52930;51.464;11.764;2022-07-23T03:24:17;18.73;;;9.80;;
66129;SDS011;52930;51.464;11.764;2022-07-23T03:26:43;19.17;;;9.27;;
66129;SDS011;52930;51.464;11.764;2022-07-23T03:29:08;16.63;;;9.27;;
66129;SDS011;52930;51.464;11.764;2022-07-23T03:31:34;21.23;;;9.77;;
66129;SDS011;52930;51.464;11.764;2022-07-23T03:33:59;19.17;;;8.83;;
66129;SDS011;52930;51.464;11.764;2022-07-23T03:36:25;21.40;;;9.50;;
66129;SDS011;52930;51.464;11.764;2022-07-23T03:38:51;15.80;;;8.30;;
66129;SDS011;52930;51.464;11.764;2022-07-23T03:41:16;20.10;;;9.40;;
66129;SDS011;52930;51.464;11.764;2022-07-23T03:43:42;20.30;;;10.38;;
66129;SDS011;52930;51.464;11.764;2022-07-23T03:48:59;23.73;;;11.18;;
66129;SDS011;52930;51.464;11.764;2022-07-23T03:51:25;27.17;;;11.67;;
66129;SDS011;52930;51.464;11.764;2022-07-23T03:53:50;25.63;;;12.27;;
66129;SDS011;52930;51.464;11.764;2022-07-23T03:56:15;24.27;;;11.97;;
66129;SDS011;52930;51.464;11.764;2022-07-23T03:58:41;29.23;;;12.33;;
66129;SDS011;52930;51.464;11.764;2022-07-23T04:01:06;33.17;;;13.67;;
66129;SDS011;52930;51.464;11.764;2022-07-23T04:03:32;25.37;;;12.70;;
66129;SDS011;52930;51.464;11.764;2022-07-23T04:05:57;30.00;;;14.03;;
66129;SDS011;52930;51.464;11.764;2022-07-23T04:08:22;26.87;;;13.00;;
66129;SDS011;52930;51.464;11.764;2022-07-23T04:10:47;26.70;;;12.70;;
66129;SDS011;52930;51.464;11.764;2022-07-23T04:13:13;27.77;;;13.63;;
66129;SDS011;52930;51.464;11.764;2022-07-23T04:15:38;31.03;;;13.87;;
66129;SDS011;52930;51.464;11.764;2022-07-23T04:18:04;29.77;;;13.70;;
66129;SDS011;52930;51.464;11.764;2022-07-23T04:20:29;30.47;;;13.77;;
66129;SDS011;52930;51.464;11.764;2022-07-23T04:22:55;31.73;;;13.77;;
66129;SDS011;52930;51.464;11.764;2022-07-23T04:25:20;29.63;;;13.57;;
66129;SDS011;52930;51.464;11.764;2022-07-23T04:27:45;27.00;;;12.53;;
66129;SDS011;52930;51.464;11.764;2022-07-23T04:30:11;22.60;;;11.60;;
66129;SDS011;52930;51.464;11.764;2022-07-23T04:32:36;25.27;;;12.07;;
66129;SDS011;52930;51.464;11.764;2022-07-23T04:35:01;27.37;;;11.67;;
66129;SDS011;52930;51.464;11.764;2022-07-23T04:37:27;25.15;;;11.52;;
66129;SDS011;52930;51.464;11.764;2022-07-23T04:39:52;25.20;;;11.30;;
66129;SDS011;52930;51.464;11.764;2022-07-23T04:42:18;22.07;;;11.23;;
66129;SDS011;52930;51.464;11.764;2022-07-23T04:44:43;24.03;;;11.90;;
66129;SDS011;52930;51.464;11.764;2022-07-23T04:47:09;26.08;;;12.13;;
66129;SDS011;52930;51.464;11.764;2022-07-23T04:49:35;30.47;;;12.43;;
66129;SDS011;52930;51.464;11.764;2022-07-23T04:52:01;26.45;;;12.15;;
66129;SDS011;52930;51.464;11.764;2022-07-23T04:54:26;30.17;;;12.70;;
66129;SDS011;52930;51.464;11.764;2022-07-23T04:56:51;23.83;;;12.57;;
66129;SDS011;52930;51.464;11.764;2022-07-23T04:59:17;27.00;;;12.57;;
66129;SDS011;52930;51.464;11.764;2022-07-23T05:01:42;28.60;;;12.93;;
66129;SDS011;52930;51.464;11.764;2022-07-23T05:04:07;26.08;;;12.88;;
66129;SDS011;52930;51.464;11.764;2022-07-23T05:06:33;24.73;;;12.27;;
66129;SDS011;52930;51.464;11.764;2022-07-23T05:08:58;29.43;;;13.23;;
66129;SDS011;52930;51.464;11.764;2022-07-23T05:11:24;29.60;;;13.33;;
66129;SDS011;52930;51.464;11.764;2022-07-23T05:13:49;28.93;;;12.60;;
66129;SDS011;52930;51.464;11.764;2022-07-23T05:16:14;26.23;;;11.80;;
66129;SDS011;52930;51.464;11.764;2022-07-23T05:18:40;26.80;;;13.60;;
66129;SDS011;52930;51.464;11.764;2022-07-23T05:21:05;29.48;;;13.00;;
66129;SDS011;52930;51.464;11.764;2022-07-23T05:23:30;27.47;;;13.20;;
66129;SDS011;52930;51.464;11.764;2022-07-23T05:25:56;25.40;;;12.67;;
66129;SDS011;52930;51.464;11.764;2022-07-23T05:28:21;29.03;;;13.00;;
66129;SDS011;52930;51.464;11.764;2022-07-23T05:30:47;31.10;;;13.73;;
66129;SDS011;52930;51.464;11.764;2022-07-23T05:33:12;28.95;;;13.65;;
66129;SDS011;52930;51.464;11.764;2022-07-23T05:35:37;27.13;;;12.90;;
66129;SDS011;52930;51.464;11.764;2022-07-23T05:38:03;29.80;;;13.13;;
66129;SDS011;52930;51.464;11.764;2022-07-23T05:40:28;32.03;;;13.27;;
66129;SDS011;52930;51.464;11.764;2022-07-23T05:42:54;26.37;;;12.27;;
66129;SDS011;52930;51.464;11.764;2022-07-23T05:45:19;26.87;;;13.30;;
66129;SDS011;52930;51.464;11.764;2022-07-23T05:47:46;27.23;;;13.33;;
66129;SDS011;52930;51.464;11.764;2022-07-23T05:50:13;29.50;;;14.50;;
66129;SDS011;52930;51.464;11.764;2022-07-23T05:52:39;32.65;;;13.57;;
66129;SDS011;52930;51.464;11.764;2022-07-23T05:55:05;29.92;;;13.68;;
66129;SDS011;52930;51.464;11.764;2022-07-23T05:57:31;28.43;;;13.57;;
66129;SDS011;52930;51.464;11.764;2022-07-23T05:59:56;31.97;;;14.80;;
66129;SDS011;52930;51.464;11.764;2022-07-23T06:02:22;29.60;;;14.63;;
66129;SDS011;52930;51.464;11.764;2022-07-23T06:04:47;29.80;;;14.87;;
66129;SDS011;52930;51.464;11.764;2022-07-23T06:07:12;33.73;;;15.63;;
66129;SDS011;52930;51.464;11.764;2022-07-23T06:09:38;33.33;;;15.27;;
66129;SDS011;52930;51.464;11.764;2022-07-23T06:12:03;33.33;;;14.97;;
66129;SDS011;52930;51.464;11.764;2022-07-23T06:14:29;33.42;;;15.48;;
66129;SDS011;52930;51.464;11.764;2022-07-23T06:16:54;32.33;;;15.23;;
66129;SDS011;52930;51.464;11.764;2022-07-23T06:19:19;32.10;;;15.40;;
66129;SDS011;52930;51.464;11.764;2022-07-23T06:21:45;29.27;;;15.23;;
66129;SDS011;52930;51.464;11.764;2022-07-23T06:24:10;32.20;;;16.20;;
66129;SDS011;52930;51.464;11.764;2022-07-23T06:26:35;31.67;;;15.40;;
66129;SDS011;52930;51.464;11.764;2022-07-23T06:29:01;29.83;;;14.60;;
66129;SDS011;52930;51.464;11.764;2022-07-23T06:31:26;30.13;;;14.97;;
66129;SDS011;52930;51.464;11.764;2022-07-23T06:33:51;27.00;;;15.03;;
66129;SDS011;52930;51.464;11.764;2022-07-23T06:36:17;25.40;;;13.73;;
66129;SDS011;52930;51.464;11.764;2022-07-23T06:38:42;30.27;;;14.27;;
66129;SDS011;52930;51.464;11.764;2022-07-23T06:41:07;26.43;;;14.27;;
66129;SDS011;52930;51.464;11.764;2022-07-23T06:43:33;24.90;;;13.40;;
66129;SDS011;52930;51.464;11.764;2022-07-23T06:45:58;29.37;;;14.40;;
66129;SDS011;52930;51.464;11.764;2022-07-23T06:48:24;28.97;;;14.90;;
66129;SDS011;52930;51.464;11.764;2022-07-23T06:50:49;25.60;;;13.70;;
66129;SDS011;52930;51.464;11.764;2022-07-23T06:53:14;26.67;;;14.20;;
66129;SDS011;52930;51.464;11.764;2022-07-23T06:55:40;27.10;;;13.60;;
66129;SDS011;52930;51.464;11.764;2022-07-23T06:58:05;26.67;;;13.83;;
66129;SDS011;52930;51.464;11.764;2022-07-23T07:00:31;27.00;;;14.77;;
66129;SDS011;52930;51.464;11.764;2022-07-23T07:02:57;28.07;;;14.90;;
66129;SDS011;52930;51.464;11.764;2022-07-23T07:05:22;25.60;;;14.10;;
66129;SDS011;52930;51.464;11.764;2022-07-23T07:07:50;30.10;;;14.20;;
66129;SDS011;52930;51.464;11.764;2022-07-23T07:10:15;25.40;;;13.97;;
66129;SDS011;52930;51.464;11.764;2022-07-23T07:12:42;24.40;;;13.05;;
66129;SDS011;52930;51.464;11.764;2022-07-23T07:15:08;22.77;;;12.00;;
66129;SDS011;52930;51.464;11.764;2022-07-23T07:17:33;23.80;;;12.40;;
66129;SDS011;52930;51.464;11.764;2022-07-23T07:19:58;22.60;;;12.47;;
66129;SDS011;52930;51.464;11.764;2022-07-23T07:22:24;25.50;;;12.47;;
66129;SDS011;52930;51.464;11.764;2022-07-23T07:24:49;21.23;;;11.43;;
66129;SDS011;52930;51.464;11.764;2022-07-23T07:27:14;20.03;;;10.63;;
66129;SDS011;52930;51.464;11.764;2022-07-23T07:29:40;21.87;;;11.40;;
66129;SDS011;52930;51.464;11.764;2022-07-23T07:32:05;17.83;;;10.03;;
66129;SDS011;52930;51.464;11.764;2022-07-23T07:34:31;19.67;;;11.40;;
66129;SDS011;52930;51.464;11.764;2022-07-23T07:36:56;21.95;;;11.45;;
66129;SDS011;52930;51.464;11.764;2022-07-23T07:39:21;21.07;;;11.67;;
66129;SDS011;52930;51.464;11.764;2022-07-23T07:41:47;19.80;;;11.20;;
66129;SDS011;52930;51.464;11.764;2022-07-23T07:44:12;19.03;;;11.13;;
66129;SDS011;52930;51.464;11.764;2022-07-23T07:46:37;20.37;;;11.70;;
66129;SDS011;52930;51.464;11.764;2022-07-23T07:49:03;18.73;;;11.30;;
66129;SDS011;52930;51.464;11.764;2022-07-23T07:51:28;19.50;;;12.03;;
66129;SDS011;52930;51.464;11.764;2022-07-23T07:53:53;22.17;;;11.80;;
66129;SDS011;52930;51.464;11.764;2022-07-23T07:56:19;21.73;;;12.30;;
66129;SDS011;52930;51.464;11.764;2022-07-23T07:58:44;20.57;;;11.90;;
66129;SDS011;52930;51.464;11.764;2022-07-23T08:01:10;24.83;;;12.60;;
66129;SDS011;52930;51.464;11.764;2022-07-23T08:03:35;23.13;;;12.20;;
66129;SDS011;52930;51.464;11.764;2022-07-23T08:06:00;21.47;;;12.30;;
66129;SDS011;52930;51.464;11.764;2022-07-23T08:08:26;24.40;;;12.53;;
66129;SDS011;52930;51.464;11.764;2022-07-23T08:10:51;22.57;;;12.77;;
66129;SDS011;52930;51.464;11.764;2022-07-23T08:13:16;21.13;;;11.90;;
66129;SDS011;52930;51.464;11.764;2022-07-23T08:15:42;21.60;;;12.03;;
66129;SDS011;52930;51.464;11.764;2022-07-23T08:18:08;22.33;;;11.43;;
66129;SDS011;52930;51.464;11.764;2022-07-23T08:20:33;19.23;;;10.20;;
66129;SDS011;52930;51.464;11.764;2022-07-23T08:22:59;18.03;;;9.60;;
66129;SDS011;52930;51.464;11.764;2022-07-23T08:25:29;18.58;;;10.88;;
66129;SDS011;52930;51.464;11.764;2022-07-23T08:27:54;18.40;;;10.00;;
66129;SDS011;52930;51.464;11.764;2022-07-23T08:30:20;17.03;;;9.73;;
66129;SDS011;52930;51.464;11.764;2022-07-23T08:33:02;17.00;;;9.60;;
66129;SDS011;52930;51.464;11.764;2022-07-23T08:35:39;16.33;;;9.17;;
66129;SDS011;52930;51.464;11.764;2022-07-23T08:38:06;19.25;;;10.13;;
66129;SDS011;52930;51.464;11.764;2022-07-23T08:40:38;15.68;;;9.50;;
66129;SDS011;52930;51.464;11.764;2022-07-23T08:43:08;16.35;;;10.07;;
66129;SDS011;52930;51.464;11.764;2022-07-23T08:45:37;17.98;;;9.98;;
66129;SDS011;52930;51.464;11.764;2022-07-23T08:48:04;17.67;;;10.13;;
66129;SDS011;52930;51.464;11.764;2022-07-23T08:50:31;19.13;;;10.15;;
66129;SDS011;52930;51.464;11.764;2022-07-23T08:52:57;17.33;;;10.80;;
66129;SDS011;52930;51.464;11.764;2022-07-23T08:55:24;17.35;;;10.00;;
66129;SDS011;52930;51.464;11.764;2022-07-23T08:57:51;20.57;;;10.70;;
66129;SDS011;52930;51.464;11.764;2022-07-23T09:00:18;19.33;;;11.27;;
66129;SDS011;52930;51.464;11.764;2022-07-23T09:02:44;21.70;;;11.45;;
66129;SDS011;52930;51.464;11.764;2022-07-23T09:05:11;19.90;;;11.87;;
66129;SDS011;52930;51.464;11.764;2022-07-23T09:07:38;18.80;;;11.10;;
66129;SDS011;52930;51.464;11.764;2022-07-23T09:10:47;21.42;;;11.90;;
66129;SDS011;52930;51.464;11.764;2022-07-23T09:15:55;21.63;;;11.73;;
66129;SDS011;52930;51.464;11.764;2022-07-23T09:19:15;20.33;;;11.07;;
66129;SDS011;52930;51.464;11.764;2022-07-23T09:23:55;20.40;;;12.03;;
66129;SDS011;52930;51.464;11.764;2022-07-23T09:26:31;17.52;;;10.90;;
66129;SDS011;52930;51.464;11.764;2022-07-23T09:34:19;18.13;;;10.98;;
66129;SDS011;52930;51.464;11.764;2022-07-23T09:36:47;21.47;;;11.60;;
66129;SDS011;52930;51.464;11.764;2022-07-23T09:39:13;20.52;;;11.30;;
66129;SDS011;52930;51.464;11.764;2022-07-23T09:41:45;22.20;;;11.75;;
66129;SDS011;52930;51.464;11.764;2022-07-23T09:44:14;20.35;;;11.27;;
66129;SDS011;52930;51.464;11.764;2022-07-23T09:46:41;19.52;;;10.60;;
66129;SDS011;52930;51.464;11.764;2022-07-23T09:49:15;17.60;;;10.37;;
66129;SDS011;52930;51.464;11.764;2022-07-23T09:51:52;18.88;;;11.15;;
66129;SDS011;52930;51.464;11.764;2022-07-23T09:54:35;20.20;;;10.55;;
66129;SDS011;52930;51.464;11.764;2022-07-23T09:57:06;17.02;;;9.77;;
66129;SDS011;52930;51.464;11.764;2022-07-23T09:59:36;16.40;;;9.48;;
66129;SDS011;52930;51.464;11.764;2022-07-23T10:02:04;16.97;;;9.40;;
66129;SDS011;52930;51.464;11.764;2022-07-23T10:04:30;17.02;;;9.65;;
66129;SDS011;52930;51.464;11.764;2022-07-23T10:06:57;17.58;;;9.65;;
66129;SDS011;52930;51.464;11.764;2022-07-23T10:09:25;19.52;;;10.30;;
66129;SDS011;52930;51.464;11.764;2022-07-23T10:11:53;16.60;;;9.73;;
66129;SDS011;52930;51.464;11.764;2022-07-23T10:14:23;18.27;;;9.60;;
66129;SDS011;52930;51.464;11.764;2022-07-23T10:16:49;19.27;;;9.63;;
66129;SDS011;52930;51.464;11.764;2022-07-23T10:19:14;19.00;;;10.30;;
66129;SDS011;52930;51.464;11.764;2022-07-23T10:21:40;18.57;;;10.87;;
66129;SDS011;52930;51.464;11.764;2022-07-23T10:24:20;18.42;;;10.48;;
66129;SDS011;52930;51.464;11.764;2022-07-23T10:27:05;17.42;;;10.05;;
66129;SDS011;52930;51.464;11.764;2022-07-23T10:30:00;16.63;;;9.70;;
66129;SDS011;52930;51.464;11.764;2022-07-23T10:35:54;16.33;;;9.57;;
66129;SDS011;52930;51.464;11.764;2022-07-23T10:39:06;16.63;;;10.40;;
66129;SDS011;52930;51.464;11.764;2022-07-23T10:41:13;17.52;;;10.77;;
66129;SDS011;52930;51.464;11.764;2022-07-23T10:43:38;17.97;;;11.13;;
66129;SDS011;52930;51.464;11.764;2022-07-23T10:49:24;19.08;;;10.65;;
66129;SDS011;52930;51.464;11.764;2022-07-23T10:54:57;19.65;;;11.15;;
66129;SDS011;52930;51.464;11.764;2022-07-23T10:57:48;18.63;;;10.70;;
66129;SDS011;52930;51.464;11.764;2022-07-23T11:00:15;15.87;;;10.50;;
66129;SDS011;52930;51.464;11.764;2022-07-23T11:02:46;16.98;;;10.45;;
66129;SDS011;52930;51.464;11.764;2022-07-23T11:05:14;16.90;;;10.98;;
66129;SDS011;52930;51.464;11.764;2022-07-23T11:10:34;17.98;;;11.23;;
66129;SDS011;52930;51.464;11.764;2022-07-23T11:31:53;16.50;;;10.23;;
66129;SDS011;52930;51.464;11.764;2022-07-23T11:36:59;19.08;;;10.77;;
66129;SDS011;52930;51.464;11.764;2022-07-23T11:39:25;18.67;;;11.60;;
66129;SDS011;52930;51.464;11.764;2022-07-23T11:41:52;16.90;;;10.93;;
66129;SDS011;52930;51.464;11.764;2022-07-23T11:44:25;19.03;;;12.23;;
66129;SDS011;52930;51.464;11.764;2022-07-23T11:46:57;17.40;;;11.90;;
66129;SDS011;52930;51.464;11.764;2022-07-23T11:49:24;19.77;;;11.73;;
66129;SDS011;52930;51.464;11.764;2022-07-23T11:52:02;20.13;;;12.43;;
66129;SDS011;52930;51.464;11.764;2022-07-23T11:54:28;17.88;;;10.95;;
66129;SDS011;52930;51.464;11.764;2022-07-23T11:56:57;21.60;;;13.17;;
66129;SDS011;52930;51.464;11.764;2022-07-23T11:59:24;18.38;;;12.00;;
66129;SDS011;52930;51.464;11.764;2022-07-23T12:01:59;19.10;;;11.23;;
66129;SDS011;52930;51.464;11.764;2022-07-23T12:04:45;18.50;;;11.63;;
66129;SDS011;52930;51.464;11.764;2022-07-23T12:07:22;17.60;;;11.65;;
66129;SDS011;52930;51.464;11.764;2022-07-23T12:10:03;16.40;;;10.77;;
66129;SDS011;52930;51.464;11.764;2022-07-23T12:12:42;23.65;;;11.82;;
66129;SDS011;52930;51.464;11.764;2022-07-23T12:15:14;13.18;;;9.13;;
66129;SDS011;52930;51.464;11.764;2022-07-23T12:17:42;15.70;;;9.98;;
66129;SDS011;52930;51.464;11.764;2022-07-23T12:20:09;15.50;;;8.88;;
66129;SDS011;52930;51.464;11.764;2022-07-23T12:22:42;18.07;;;9.90;;
66129;SDS011;52930;51.464;11.764;2022-07-23T12:27:38;15.95;;;10.27;;
66129;SDS011;52930;51.464;11.764;2022-07-23T12:30:25;14.73;;;10.43;;
66129;SDS011;52930;51.464;11.764;2022-07-23T12:32:54;12.73;;;9.13;;
66129;SDS011;52930;51.464;11.764;2022-07-23T12:35:22;16.33;;;9.80;;
66129;SDS011;52930;51.464;11.764;2022-07-23T12:37:49;15.95;;;9.45;;
66129;SDS011;52930;51.464;11.764;2022-07-23T12:40:31;12.68;;;8.43;;
66129;SDS011;52930;51.464;11.764;2022-07-23T12:42:59;13.73;;;8.70;;
66129;SDS011;52930;51.464;11.764;2022-07-23T12:45:26;15.43;;;9.10;;
66129;SDS011;52930;51.464;11.764;2022-07-23T12:47:56;12.40;;;7.70;;
66129;SDS011;52930;51.464;11.764;2022-07-23T12:50:59;13.88;;;8.90;;
66129;SDS011;52930;51.464;11.764;2022-07-23T12:53:30;13.43;;;8.52;;
66129;SDS011;52930;51.464;11.764;2022-07-23T13:01:36;13.02;;;8.63;;
66129;SDS011;52930;51.464;11.764;2022-07-23T13:04:10;14.55;;;9.43;;
66129;SDS011;52930;51.464;11.764;2022-07-23T13:06:40;14.20;;;9.05;;
66129;SDS011;52930;51.464;11.764;2022-07-23T13:09:09;12.80;;;8.47;;
66129;SDS011;52930;51.464;11.764;2022-07-23T13:11:38;13.05;;;8.73;;
66129;SDS011;52930;51.464;11.764;2022-07-23T13:14:05;13.27;;;8.40;;
66129;SDS011;52930;51.464;11.764;2022-07-23T13:16:31;10.88;;;7.85;;
66129;SDS011;52930;51.464;11.764;2022-07-23T13:18:57;14.15;;;8.75;;
66129;SDS011;52930;51.464;11.764;2022-07-23T13:21:23;13.17;;;8.30;;
66129;SDS011;52930;51.464;11.764;2022-07-23T13:23:49;11.85;;;7.90;;
66129;SDS011;52930;51.464;11.764;2022-07-23T13:26:15;11.13;;;7.22;;
66129;SDS011;52930;51.464;11.764;2022-07-23T13:28:41;12.77;;;7.10;;
66129;SDS011;52930;51.464;11.764;2022-07-23T13:31:07;11.73;;;7.75;;
66129;SDS011;52930;51.464;11.764;2022-07-23T13:33:32;10.63;;;6.77;;
66129;SDS011;52930;51.464;11.764;2022-07-23T13:35:58;13.23;;;7.85;;
66129;SDS011;52930;51.464;11.764;2022-07-23T13:38:23;11.50;;;7.70;;
66129;SDS011;52930;51.464;11.764;2022-07-23T13:40:50;11.40;;;6.83;;
66129;SDS011;52930;51.464;11.764;2022-07-23T13:43:17;12.90;;;7.15;;
66129;SDS011;52930;51.464;11.764;2022-07-23T13:45:44;13.45;;;8.00;;
66129;SDS011;52930;51.464;11.764;2022-07-23T13:48:11;10.67;;;7.30;;
66129;SDS011;52930;51.464;11.764;2022-07-23T13:50:37;11.38;;;7.28;;
66129;SDS011;52930;51.464;11.764;2022-07-23T13:53:05;10.85;;;6.85;;
66129;SDS011;52930;51.464;11.764;2022-07-23T13:55:32;11.52;;;6.90;;
66129;SDS011;52930;51.464;11.764;2022-07-23T13:57:58;11.38;;;7.15;;
66129;SDS011;52930;51.464;11.764;2022-07-23T14:00:24;12.37;;;7.10;;
66129;SDS011;52930;51.464;11.764;2022-07-23T14:02:50;9.90;;;6.68;;
66129;SDS011;52930;51.464;11.764;2022-07-23T14:05:15;8.90;;;6.50;;
66129;SDS011;52930;51.464;11.764;2022-07-23T14:07:41;11.07;;;7.40;;
66129;SDS011;52930;51.464;11.764;2022-07-23T14:10:08;10.25;;;6.53;;
66129;SDS011;52930;51.464;11.764;2022-07-23T14:12:33;11.38;;;7.47;;
66129;SDS011;52930;51.464;11.764;2022-07-23T14:14:59;12.60;;;7.17;;
66129;SDS011;52930;51.464;11.764;2022-07-23T14:17:25;10.60;;;6.97;;
66129;SDS011;52930;51.464;11.764;2022-07-23T14:19:51;10.18;;;6.30;;
66129;SDS011;52930;51.464;11.764;2022-07-23T14:22:16;10.17;;;6.50;;
66129;SDS011;52930;51.464;11.764;2022-07-23T14:24:42;8.93;;;6.33;;
66129;SDS011;52930;51.464;11.764;2022-07-23T14:27:07;9.63;;;6.22;;
66129;SDS011;52930;51.464;11.764;2022-07-23T14:29:33;9.43;;;5.80;;
66129;SDS011;52930;51.464;11.764;2022-07-23T14:31:58;10.00;;;6.25;;
66129;SDS011;52930;51.464;11.764;2022-07-23T14:34:24;8.70;;;5.53;;
66129;SDS011;52930;51.464;11.764;2022-07-23T14:36:50;9.98;;;5.70;;
66129;SDS011;52930;51.464;11.764;2022-07-23T14:39:16;8.03;;;5.70;;
66129;SDS011;52930;51.464;11.764;2022-07-23T14:41:41;9.13;;;5.40;;
66129;SDS011;52930;51.464;11.764;2022-07-23T14:44:07;8.97;;;6.10;;
66129;SDS011;52930;51.464;11.764;2022-07-23T14:46:32;9.20;;;5.80;;
66129;SDS011;52930;51.464;11.764;2022-07-23T14:48:58;9.97;;;5.60;;
66129;SDS011;52930;51.464;11.764;2022-07-23T14:51:23;10.98;;;4.95;;
66129;SDS011;52930;51.464;11.764;2022-07-23T14:53:49;9.50;;;5.37;;
66129;SDS011;52930;51.464;11.764;2022-07-23T14:56:14;8.60;;;5.50;;
66129;SDS011;52930;51.464;11.764;2022-07-23T14:58:40;8.20;;;5.40;;
66129;SDS011;52930;51.464;11.764;2022-07-23T15:01:05;9.55;;;5.85;;
66129;SDS011;52930;51.464;11.764;2022-07-23T15:03:31;9.07;;;6.13;;
66129;SDS011;52930;51.464;11.764;2022-07-23T15:05:56;9.02;;;5.68;;
66129;SDS011;52930;51.464;11.764;2022-07-23T15:08:22;9.10;;;6.13;;
66129;SDS011;52930;51.464;11.764;2022-07-23T15:10:47;10.17;;;6.03;;
66129;SDS011;52930;51.464;11.764;2022-07-23T15:13:12;11.57;;;6.53;;